Impacts METAR Board INFO
IDs:

KMIA - Miami Intl, FL, US

Updated at: 0852 UTC 19 Nov 2017
Potential Impact None Slight Moderate High
Time18/20Z 18/21Z 18/22Z 18/23Z 19/00Z 19/01Z 19/02Z 19/03Z 19/04Z 19/05Z 19/06Z 19/07Z 19/08Z
VIS10 10 10 10 10 10 10 10 10 10 10 10 10
CIG-- -- -- -- -- -- -- -- -- -- -- -- --
CoverSCTSCTSCTSCTSCTSCTSCTCLRFEWCLRFEWFEWFEW
FltCatVFRVFRVFRVFRVFRVFRVFRVFRVFRVFRVFRVFRVFR
WX--------------------------
WDir9010050300000000300310
WSpd9 7 6 5 0 0 0 0 0 0 0 3 3
WGst-- -- -- -- -- -- -- -- -- -- -- -- --
Raw hourly METARs
KMIA 181953Z 09009KT 10SM SCT040 28/18 A2992 RMK AO2 SLP132 T02780183
KMIA 182053Z 10007KT 10SM SCT040 SCT130 27/19 A2992 RMK AO2 SLP133 T02720189 55010
KMIA 182153Z 05006KT 10SM SCT038 SCT100 26/19 A2993 RMK AO2 SLP135 T02610189
KMIA 182253Z 03005KT 10SM SCT034 SCT060 26/19 A2993 RMK AO2 SLP137 T02560189
KMIA 182353Z 00000KT 10SM SCT036 SCT046 25/19 A2994 RMK AO2 SLP139 T02500189 10283 20250 53006
KMIA 190053Z COR 00000KT 10SM SCT034 SCT045 25/19 A2996 RMK AO2 SLP146 T02500189
KMIA 190153Z 00000KT 10SM FEW032 SCT060 24/18 A2997 RMK AO2 SLP149 T02390183
KMIA 190253Z 00000KT 10SM CLR 23/19 A2997 RMK AO2 SLP149 T02280189 50009
KMIA 190353Z 00000KT 10SM FEW017 22/18 A2997 RMK AO2 SLP149 T02220183
KMIA 190453Z 00000KT 10SM CLR 22/19 A2996 RMK AO2 SLP146 T02220189 402830189
KMIA 190553Z 00000KT 10SM FEW040 21/19 A2995 RMK AO2 SLP143 T02110189 10250 20206 58005
KMIA 190653Z 30003KT 10SM FEW040 22/19 A2995 RMK AO2 SLP142 T02170194
KMIA 190753Z 31003KT 10SM FEW040 22/19 A2994 RMK AO2 SLP139 T02170194